Aeroporto :
LOGIN :

Iscrizione | Disclaimer

   EN    FR    IT 

 










Sommario :    VFR   VFR Marginale   IFR   IFR Intensivo   IFR Molto Intensivo
Visibilità : 
Base nubi : 
>= 8 km
>= 3000ft
5 / 8 km
1000 / 3000 ft
1500m / 5 km
500 / 1000 ft
800 / 1500m
200 / 500 ft
< 800m
< 200 ft
Simboli :   Temporali  Nebbia  Neve Forte  Precipitazioni Forti  Vento > 20 kt
SIGMETs :   Varie  Temporali  Ghiacco  Turbolenza  Onda orograficha  Ceneri Vulcaniche






- Altitudine del aeroporto : 348 ft
- Codice IATA : TSR


LRTR - Timisoara

ULTIMO METAR :
  • 291730Z 00000KT 9999 SCT044 03/03 Q1011

METARs OBSOLETI :
  • 291700Z VRB02KT 9999 FEW049 03/03 Q1011 NOSIG
  • 291630Z 30002KT 9999 FEW020 03/03 Q1011 NOSIG
  • 291600Z 23002KT 9999 FEW020 04/03 Q1010 NOSIG
  • 291530Z 16003KT 9999 FEW020 04/03 Q1010 NOSIG
  • 291500Z 15005KT 9999 FEW015 04/03 Q1010 R11/CLRD// NOSIG

TAF TAF LRTR
Valido dal 29 a 18 ore il 30 a 18 ore UTC


291700Z 2918/3018 VRB04KT 9999 SCT045
PROB40
TEMPO 2918/2920 5000 -SHRA SCT040CB
BECMG 2920/2922 5000 BR
TEMPO 2923/3002 1500 BR
TEMPO 3003/3007 34010KT 3000 SHSN BKN005 SCT030CB OVC035
BECMG 3007/3009 27010KT 9999 NSW
PROB40
TEMPO 3009/3013 BKN010
BECMG 3016/3018 VRB04KT



MetMap, La meteo Aeronautica in un colpo d'occhio ! - Copyright ORBIFLY Dicembre 2007 - Disclaimer

ORBIFLY MET'MAP TEAM :

Programmazione e sviluppo : Alexandra Zaïnal
Concezione : Baudouin d'Aumeries
Aiuto per la programmazione : Marc-Olivier Méhu
Supporto tecnico e logistico : Manuel Goepfert
Aiuto per la traduzione : Arnaldo La Scala

Contatto : metmap@orbifly.com




FONTI E CREDITI :

   NOAA